createdAt,value
2022-11-01T00:02:16.799Z,100.00
2022-11-01T00:04:46.013Z,100.00
2022-11-01T00:07:14.986Z,100.00
2022-11-01T00:09:43.945Z,100.00
2022-11-01T00:12:12.868Z,100.00
2022-11-01T00:14:41.801Z,100.00
2022-11-01T00:17:10.736Z,100.00
2022-11-01T00:19:41.045Z,100.00
2022-11-01T00:22:09.978Z,100.00
2022-11-01T00:24:38.899Z,100.00
2022-11-01T00:27:07.818Z,100.00
2022-11-01T00:29:36.766Z,100.00
2022-11-01T00:32:06.847Z,100.00
2022-11-01T00:34:35.762Z,100.00
2022-11-01T00:37:06.017Z,100.00
2022-11-01T00:39:35.031Z,100.00
2022-11-01T00:42:03.970Z,100.00
2022-11-01T00:44:32.958Z,100.00
2022-11-01T00:47:01.881Z,100.00
2022-11-01T00:49:30.774Z,100.00
2022-11-01T00:51:59.706Z,100.00
2022-11-01T00:54:30.046Z,100.00
2022-11-01T00:56:59.029Z,100.00
2022-11-01T00:59:27.945Z,100.00
2022-11-01T01:01:57.000Z,100.00
2022-11-01T01:04:25.997Z,100.00
2022-11-01T01:06:55.098Z,100.00
2022-11-01T01:09:23.998Z,100.00
2022-11-01T01:11:54.512Z,100.00
2022-11-01T01:14:26.452Z,100.00
2022-11-01T01:16:57.492Z,100.00
2022-11-01T01:19:26.423Z,100.00
2022-11-01T01:21:55.373Z,100.00
2022-11-01T01:24:24.653Z,100.00
2022-11-01T01:26:55.097Z,100.00
2022-11-01T01:29:24.205Z,100.00
2022-11-01T01:31:53.472Z,100.00
2022-11-01T01:34:22.436Z,100.00
2022-11-01T01:36:51.311Z,100.00
2022-11-01T01:39:20.294Z,100.00
2022-11-01T01:41:58.387Z,100.00
2022-11-01T01:45:15.308Z,100.00
2022-11-01T01:47:48.201Z,100.00
2022-11-01T01:50:23.506Z,100.00
2022-11-01T01:52:56.593Z,100.00
2022-11-01T01:55:29.075Z,100.00
2022-11-01T01:57:59.439Z,100.00
2022-11-01T02:00:29.831Z,100.00
2022-11-01T02:02:58.944Z,100.00
2022-11-01T02:05:38.200Z,100.00
2022-11-01T02:08:08.282Z,100.00
2022-11-01T02:10:37.479Z,100.00
2022-11-01T02:13:14.124Z,100.00
2022-11-01T02:15:54.689Z,100.00
2022-11-01T02:18:33.153Z,100.00
2022-11-01T02:21:23.166Z,100.00
2022-11-01T02:24:21.128Z,100.00
2022-11-01T02:27:03.886Z,100.00
2022-11-01T02:29:51.699Z,100.00
2022-11-01T02:32:29.950Z,100.00
2022-11-01T02:35:05.443Z,100.00
2022-11-01T02:37:40.723Z,100.00
2022-11-01T02:40:15.095Z,100.00
2022-11-01T02:42:46.804Z,100.00
2022-11-01T02:45:28.922Z,100.00
2022-11-01T02:48:01.295Z,100.00
2022-11-01T02:50:34.734Z,100.00
2022-11-01T02:53:04.584Z,100.00
2022-11-01T02:55:36.000Z,100.00
2022-11-01T02:58:07.703Z,100.00
2022-11-01T03:00:37.655Z,100.00
2022-11-01T03:03:13.830Z,100.00
2022-11-01T03:05:54.767Z,100.00
2022-11-01T03:08:27.959Z,100.00
2022-11-01T03:11:05.130Z,100.00
2022-11-01T03:13:58.932Z,100.00
2022-11-01T03:16:32.786Z,100.00
2022-11-01T03:19:18.592Z,100.00
2022-11-01T03:21:52.889Z,100.00
2022-11-01T03:24:27.524Z,100.00
2022-11-01T03:27:03.938Z,100.00
2022-11-01T03:29:34.456Z,100.00
2022-11-01T03:32:05.327Z,100.00
2022-11-01T03:34:38.501Z,100.00
2022-11-01T03:37:12.415Z,100.00
2022-11-01T03:39:44.570Z,100.00
2022-11-01T03:42:16.474Z,100.00
2022-11-01T03:44:48.604Z,100.00
2022-11-01T03:47:17.599Z,100.00
2022-11-01T03:49:47.909Z,100.00
2022-11-01T03:52:16.865Z,100.00
2022-11-01T03:54:45.790Z,100.00
2022-11-01T03:57:14.696Z,100.00
2022-11-01T03:59:43.912Z,100.00
2022-11-01T04:02:12.840Z,100.00
2022-11-01T04:04:41.788Z,100.00
2022-11-01T04:07:12.055Z,100.00
2022-11-01T04:09:40.996Z,100.00
2022-11-01T04:12:09.934Z,100.00
2022-11-01T04:14:56.353Z,100.00
2022-11-01T04:17:43.017Z,100.00
2022-11-01T04:20:29.702Z,100.00
2022-11-01T04:23:00.354Z,100.00
2022-11-01T04:25:29.923Z,100.00
2022-11-01T04:27:59.827Z,100.00
2022-11-01T04:30:30.682Z,100.00
2022-11-01T04:32:59.897Z,100.00
2022-11-01T04:35:29.070Z,100.00
2022-11-01T04:38:00.698Z,100.00
2022-11-01T04:40:29.962Z,100.00
2022-11-01T04:43:00.307Z,100.00
2022-11-01T04:45:29.279Z,100.00
2022-11-01T04:48:06.464Z,100.00
2022-11-01T04:50:36.377Z,100.00
2022-11-01T04:53:06.842Z,100.00
2022-11-01T04:55:36.087Z,100.00
2022-11-01T04:58:06.675Z,100.00
2022-11-01T05:00:35.704Z,100.00
2022-11-01T05:03:07.076Z,100.00
2022-11-01T05:05:37.879Z,100.00
2022-11-01T05:08:09.970Z,100.00
2022-11-01T05:10:41.279Z,100.00
2022-11-01T05:13:11.079Z,100.00
2022-11-01T05:15:53.219Z,100.00
2022-11-01T05:18:29.286Z,100.00
2022-11-01T05:20:58.260Z,100.00
2022-11-01T05:23:28.556Z,100.00
2022-11-01T05:25:58.491Z,100.00
2022-11-01T05:28:27.499Z,100.00
2022-11-01T05:30:58.405Z,100.00
2022-11-01T05:33:27.418Z,100.00
2022-11-01T05:35:56.348Z,100.00
2022-11-01T05:38:26.699Z,100.00
2022-11-01T05:40:55.629Z,100.00
2022-11-01T05:43:24.812Z,100.00
2022-11-01T05:45:53.756Z,100.00
2022-11-01T05:48:22.734Z,100.00
2022-11-01T05:50:51.689Z,100.00
2022-11-01T05:53:20.655Z,100.00
2022-11-01T05:55:51.054Z,100.00
2022-11-01T05:58:20.073Z,100.00
2022-11-01T06:00:49.028Z,100.00
2022-11-01T06:03:17.943Z,100.00
2022-11-01T06:05:46.959Z,100.00
2022-11-01T06:08:16.068Z,100.00
2022-11-01T06:10:45.019Z,100.00
2022-11-01T06:13:15.294Z,100.00
2022-11-01T06:15:44.822Z,100.00
2022-11-01T06:18:13.752Z,100.00
2022-11-01T06:20:42.701Z,100.00
2022-11-01T06:23:12.647Z,100.00
2022-11-01T06:25:41.588Z,100.00
2022-11-01T06:28:10.550Z,100.00
2022-11-01T06:30:40.869Z,100.00
2022-11-01T06:33:09.852Z,100.00
2022-11-01T06:35:38.830Z,100.00
2022-11-01T06:38:09.825Z,100.00
2022-11-01T06:40:39.004Z,100.00
2022-11-01T06:43:07.984Z,100.00
2022-11-01T06:45:36.941Z,100.00
2022-11-01T06:48:07.747Z,100.00
2022-11-01T06:50:36.746Z,100.00
2022-11-01T06:53:05.688Z,100.00
2022-11-01T06:55:34.641Z,100.00
2022-11-01T06:58:04.746Z,100.00
2022-11-01T07:00:33.911Z,100.00
2022-11-01T07:03:05.314Z,100.00
2022-11-01T07:05:37.591Z,100.00
2022-11-01T07:08:08.987Z,100.00
2022-11-01T07:10:38.948Z,100.00
2022-11-01T07:13:10.218Z,100.00
2022-11-01T07:15:39.301Z,100.00
2022-11-01T07:18:09.206Z,100.00
2022-11-01T07:20:42.470Z,100.00
2022-11-01T07:23:13.898Z,100.00
2022-11-01T07:25:43.607Z,100.00
2022-11-01T07:28:12.647Z,100.00
2022-11-01T07:30:41.682Z,100.00
2022-11-01T07:33:11.007Z,100.00
2022-11-01T07:35:41.296Z,100.00
2022-11-01T07:38:13.169Z,100.00
2022-11-01T07:40:42.837Z,100.00
2022-11-01T07:43:12.261Z,100.00
2022-11-01T07:45:41.192Z,100.00
2022-11-01T07:48:13.142Z,100.00
2022-11-01T07:50:44.482Z,100.00
2022-11-01T07:53:15.462Z,100.00
2022-11-01T07:55:44.956Z,100.00
2022-11-01T07:58:15.074Z,100.00
2022-11-01T08:00:45.014Z,100.00
2022-11-01T08:03:15.931Z,100.00
2022-11-01T08:05:47.675Z,100.00
2022-11-01T08:08:17.367Z,100.00
2022-11-01T08:10:46.924Z,100.00
2022-11-01T08:13:18.246Z,99.28
2022-11-01T08:15:48.331Z,99.33
2022-11-01T08:18:17.898Z,97.84
2022-11-01T08:20:48.244Z,97.92
2022-11-01T08:23:17.427Z,97.40
2022-11-01T08:25:47.416Z,97.39
2022-11-01T08:28:18.151Z,96.68
2022-11-01T08:30:48.945Z,97.03
2022-11-01T08:33:17.904Z,97.09
2022-11-01T08:35:50.643Z,97.66
2022-11-01T08:38:20.255Z,96.77
2022-11-01T08:40:49.250Z,95.63
2022-11-01T08:43:18.540Z,95.93
2022-11-01T08:45:47.976Z,96.78
2022-11-01T08:48:17.013Z,96.61
2022-11-01T08:50:47.314Z,95.08
2022-11-01T08:53:16.409Z,94.82
2022-11-01T08:55:45.412Z,95.43
2022-11-01T08:58:14.475Z,94.69
2022-11-01T09:00:44.604Z,94.62
2022-11-01T09:03:13.922Z,94.86
2022-11-01T09:05:42.851Z,94.26
2022-11-01T09:08:13.144Z,94.18
2022-11-01T09:10:42.134Z,94.08
2022-11-01T09:13:11.352Z,92.75
2022-11-01T09:15:40.554Z,92.17
2022-11-01T09:18:09.913Z,90.76
2022-11-01T09:20:38.896Z,89.59
2022-11-01T09:23:07.800Z,87.93
2022-11-01T09:25:38.077Z,87.81
2022-11-01T09:28:07.039Z,87.04
2022-11-01T09:30:41.505Z,86.55
2022-11-01T09:33:21.377Z,85.75
2022-11-01T09:35:56.694Z,84.42
2022-11-01T09:38:29.030Z,85.44
2022-11-01T09:41:04.107Z,83.13
2022-11-01T09:43:38.092Z,82.85
2022-11-01T09:46:08.780Z,81.57
2022-11-01T09:48:38.663Z,81.09
2022-11-01T09:51:17.552Z,79.38
2022-11-01T09:53:47.301Z,79.31
2022-11-01T09:56:22.642Z,79.96
2022-11-01T09:59:01.602Z,80.43
2022-11-01T10:04:50.410Z,79.51
2022-11-01T10:07:28.493Z,80.55
2022-11-01T10:10:04.512Z,80.86
2022-11-01T10:12:48.159Z,81.75
2022-11-01T10:15:33.238Z,81.46
2022-11-01T10:18:08.389Z,80.91
2022-11-01T10:20:41.233Z,81.83
2022-11-01T10:23:15.875Z,81.86
2022-11-01T10:25:52.839Z,81.75
2022-11-01T10:28:31.029Z,81.91
2022-11-01T10:31:04.631Z,81.35
2022-11-01T10:33:39.148Z,81.43
2022-11-01T10:36:14.934Z,81.62
2022-11-01T10:41:42.350Z,80.96
2022-11-01T10:44:18.359Z,82.18
2022-11-01T10:46:49.612Z,78.91
2022-11-01T10:49:24.786Z,77.39
2022-11-01T10:51:59.026Z,77.56
2022-11-01T10:54:31.338Z,76.96
2022-11-01T10:57:04.634Z,76.78
2022-11-01T10:59:40.341Z,75.01
2022-11-01T11:02:22.946Z,77.13
2022-11-01T11:04:52.813Z,78.97
2022-11-01T11:07:24.317Z,79.45
2022-11-01T11:09:53.416Z,80.17
2022-11-01T11:12:24.947Z,79.91
2022-11-01T11:14:59.720Z,76.34
2022-11-01T11:17:35.648Z,76.34
2022-11-01T11:20:06.808Z,71.82
2022-11-01T11:22:40.901Z,65.08
2022-11-01T11:25:17.502Z,65.32
2022-11-01T11:27:48.828Z,64.21
2022-11-01T11:30:30.231Z,61.98
2022-11-01T11:33:00.018Z,59.97
2022-11-01T11:35:32.587Z,58.92
2022-11-01T11:38:04.774Z,58.93
2022-11-01T11:40:45.584Z,56.96
2022-11-01T11:43:25.997Z,57.22
2022-11-01T11:46:14.775Z,58.32
2022-11-01T11:48:49.436Z,57.92
2022-11-01T11:51:19.073Z,55.84
2022-11-01T11:54:11.221Z,55.51
2022-11-01T11:56:40.458Z,55.75
2022-11-01T11:59:22.929Z,55.58
2022-11-01T12:01:57.467Z,56.58
2022-11-01T12:04:30.143Z,57.09
2022-11-01T12:06:59.092Z,57.22
2022-11-01T12:09:46.468Z,55.97
2022-11-01T12:12:20.667Z,56.50
2022-11-01T12:14:49.827Z,56.83
2022-11-01T12:17:34.904Z,55.90
2022-11-01T12:20:10.770Z,56.40
2022-11-01T12:22:42.451Z,57.31
2022-11-01T12:25:16.950Z,59.15
2022-11-01T12:27:56.746Z,56.70
2022-11-01T12:30:28.341Z,56.30
2022-11-01T12:33:00.413Z,57.08
2022-11-01T12:35:32.478Z,57.09
2022-11-01T12:38:17.510Z,56.82
2022-11-01T12:40:50.781Z,56.50
2022-11-01T12:43:24.198Z,54.94
2022-11-01T12:45:58.016Z,55.47
2022-11-01T12:48:32.499Z,54.49
2022-11-01T12:51:06.951Z,53.49
2022-11-01T12:53:43.633Z,54.93
2022-11-01T12:56:13.035Z,54.39
2022-11-01T12:58:42.115Z,53.38
2022-11-01T13:01:31.634Z,54.76
2022-11-01T13:04:15.413Z,55.33
2022-11-01T13:07:03.547Z,53.81
2022-11-01T13:09:42.517Z,53.40
2022-11-01T13:12:19.946Z,53.40
2022-11-01T13:15:04.108Z,51.43
2022-11-01T13:17:41.755Z,52.35
2022-11-01T13:20:44.017Z,51.34
2022-11-01T13:23:22.635Z,54.02
2022-11-01T13:25:57.689Z,53.15
2022-11-01T13:28:39.685Z,53.99
2022-11-01T13:31:18.330Z,54.10
2022-11-01T13:33:54.660Z,55.57
2022-11-01T13:36:33.031Z,56.04
2022-11-01T13:39:13.959Z,56.58
2022-11-01T13:41:50.019Z,56.47
2022-11-01T13:44:22.454Z,55.49
2022-11-01T13:47:08.119Z,55.22
2022-11-01T13:50:01.765Z,55.97
2022-11-01T13:52:35.248Z,56.25
2022-11-01T13:55:18.824Z,56.58
2022-11-01T13:57:48.615Z,57.45
2022-11-01T14:00:41.302Z,56.62
2022-11-01T14:03:25.775Z,52.67
2022-11-01T14:09:30.443Z,55.72
2022-11-01T14:12:11.400Z,53.40
2022-11-01T14:14:54.124Z,54.68
2022-11-01T14:18:00.853Z,54.24
2022-11-01T14:20:46.081Z,54.30
2022-11-01T14:23:54.797Z,56.53
2022-11-01T14:27:01.966Z,57.41
2022-11-01T14:29:31.232Z,56.48
2022-11-01T14:32:00.890Z,58.38
2022-11-01T14:34:35.309Z,58.62
2022-11-01T14:37:17.084Z,59.18
2022-11-01T14:39:59.105Z,60.66
2022-11-01T14:42:39.931Z,61.29
2022-11-01T14:45:28.692Z,59.92
2022-11-01T14:48:01.876Z,60.36
2022-11-01T14:50:39.940Z,61.07
2022-11-01T14:53:15.761Z,61.56
2022-11-01T14:55:44.689Z,61.66
2022-11-01T14:58:23.395Z,62.46
2022-11-01T15:00:54.713Z,61.76
2022-11-01T15:03:24.340Z,61.78
2022-11-01T15:05:54.341Z,61.87
2022-11-01T15:08:29.193Z,61.12
2022-11-01T15:11:01.051Z,62.49
2022-11-01T15:13:36.741Z,62.64
2022-11-01T15:16:15.082Z,63.98
2022-11-01T15:18:49.562Z,63.35
2022-11-01T15:21:24.382Z,64.51
2022-11-01T15:23:57.844Z,64.57
2022-11-01T15:26:31.069Z,64.51
2022-11-01T15:29:04.133Z,65.55
2022-11-01T15:31:35.698Z,65.24
2022-11-01T15:34:20.840Z,66.13
2022-11-01T15:36:50.453Z,65.73
2022-11-01T15:39:22.638Z,66.58
2022-11-01T15:41:53.942Z,66.32
2022-11-01T15:44:26.319Z,66.68
2022-11-01T15:46:58.949Z,66.41
2022-11-01T15:49:33.845Z,67.38
2022-11-01T15:52:06.067Z,67.44
2022-11-01T15:54:42.091Z,67.47
2022-11-01T15:57:20.140Z,69.18
2022-11-01T15:59:58.592Z,69.16
2022-11-01T16:02:31.211Z,69.32
2022-11-01T16:05:01.203Z,69.73
2022-11-01T16:07:32.897Z,70.34
2022-11-01T16:10:05.334Z,69.41
2022-11-01T16:12:38.459Z,70.02
2022-11-01T16:15:20.295Z,70.13
2022-11-01T16:17:49.432Z,69.41
2022-11-01T16:20:31.256Z,70.44
2022-11-01T16:23:01.606Z,70.58
2022-11-01T16:25:32.720Z,70.99
2022-11-01T16:28:05.932Z,71.15
2022-11-01T16:30:48.770Z,71.42
2022-11-01T16:33:20.326Z,71.49
2022-11-01T16:35:50.953Z,72.12
2022-11-01T16:38:38.380Z,71.95
2022-11-01T16:41:15.673Z,72.69
2022-11-01T16:43:45.778Z,72.42
2022-11-01T16:46:16.427Z,72.75
2022-11-01T16:48:54.297Z,72.88
2022-11-01T16:51:26.756Z,72.31
2022-11-01T16:53:57.194Z,73.27
2022-11-01T16:56:37.663Z,72.69
2022-11-01T16:59:16.272Z,72.83
2022-11-01T17:01:47.452Z,73.70
2022-11-01T17:04:18.482Z,73.01
2022-11-01T17:06:47.848Z,73.39
2022-11-01T17:09:19.654Z,73.33
2022-11-01T17:11:51.588Z,72.98
2022-11-01T17:14:22.095Z,73.22
2022-11-01T17:16:53.604Z,72.51
2022-11-01T17:19:27.325Z,72.53
2022-11-01T17:21:57.576Z,72.40
2022-11-01T17:24:31.100Z,71.84
2022-11-01T17:27:02.012Z,71.82
2022-11-01T17:29:31.395Z,72.81
2022-11-01T17:32:04.015Z,72.13
2022-11-01T17:37:03.421Z,71.87
2022-11-01T17:39:32.669Z,72.97
2022-11-01T17:42:02.051Z,72.85
2022-11-01T17:44:30.996Z,73.32
2022-11-01T17:47:02.393Z,74.03
2022-11-01T17:49:31.412Z,74.08
2022-11-01T17:52:01.066Z,74.92
2022-11-01T17:54:30.057Z,75.86
2022-11-01T17:56:59.073Z,76.18
2022-11-01T17:59:28.616Z,75.77
2022-11-01T18:01:57.669Z,76.53
2022-11-01T18:04:32.607Z,77.26
2022-11-01T18:07:05.184Z,77.91
2022-11-01T18:09:37.331Z,78.18
2022-11-01T18:12:11.614Z,78.33
2022-11-01T18:14:55.969Z,79.87
2022-11-01T18:17:46.657Z,80.23
2022-11-01T18:20:28.646Z,80.51
2022-11-01T18:23:02.572Z,81.13
2022-11-01T18:25:37.390Z,81.82
2022-11-01T18:28:14.139Z,81.55
2022-11-01T18:30:44.907Z,81.76
2022-11-01T18:33:20.575Z,82.12
2022-11-01T18:35:55.930Z,82.46
2022-11-01T18:38:30.325Z,82.84
2022-11-01T18:41:00.496Z,83.51
2022-11-01T18:43:32.964Z,84.12
2022-11-01T18:46:24.451Z,83.26
2022-11-01T18:48:59.904Z,83.63
2022-11-01T18:51:32.939Z,84.43
2022-11-01T18:54:23.160Z,84.18
2022-11-01T18:56:54.375Z,83.86
2022-11-01T18:59:30.027Z,84.34
2022-11-01T19:02:07.248Z,84.59
2022-11-01T19:04:37.448Z,84.56
2022-11-01T19:07:14.103Z,83.93
2022-11-01T19:09:47.178Z,84.16
2022-11-01T19:12:22.623Z,83.96
2022-11-01T19:14:57.859Z,84.00
2022-11-01T19:17:28.647Z,84.89
2022-11-01T19:19:59.674Z,84.37
2022-11-01T19:22:39.999Z,85.01
2022-11-01T19:25:19.690Z,84.69
2022-11-01T19:27:50.521Z,84.86
2022-11-01T19:30:24.485Z,85.20
2022-11-01T19:32:57.161Z,84.40
2022-11-01T19:35:26.124Z,84.25
2022-11-01T19:37:58.097Z,84.82
2022-11-01T19:40:31.250Z,83.96
2022-11-01T19:43:09.639Z,83.52
2022-11-01T19:45:42.565Z,83.96
2022-11-01T19:48:14.326Z,82.14
2022-11-01T19:50:45.240Z,82.13
2022-11-01T19:53:23.120Z,82.95
2022-11-01T19:55:55.945Z,82.14
2022-11-01T19:58:42.117Z,81.07
2022-11-01T20:01:30.919Z,80.38
2022-11-01T20:04:02.813Z,78.85
2022-11-01T20:06:37.238Z,78.36
2022-11-01T20:09:14.222Z,74.84
2022-11-01T20:11:43.266Z,73.62
2022-11-01T20:14:13.131Z,72.14
2022-11-01T20:16:42.267Z,71.40
2022-11-01T20:19:13.298Z,72.18
2022-11-01T20:21:46.408Z,71.09
2022-11-01T20:24:16.825Z,70.92
2022-11-01T20:26:45.774Z,70.99
2022-11-01T20:29:15.378Z,71.15
2022-11-01T20:31:44.774Z,70.25
2022-11-01T20:34:13.735Z,68.35
2022-11-01T20:36:44.602Z,68.94
2022-11-01T20:39:19.990Z,68.87
2022-11-01T20:41:50.409Z,68.66
2022-11-01T20:44:20.101Z,68.82
2022-11-01T20:46:49.515Z,69.23
2022-11-01T20:49:21.238Z,69.48
2022-11-01T20:51:50.854Z,68.92
2022-11-01T20:54:21.502Z,70.17
2022-11-01T20:56:50.575Z,69.81
2022-11-01T20:59:22.970Z,69.32
2022-11-01T21:01:52.433Z,69.21
2022-11-01T21:04:21.579Z,70.45
2022-11-01T21:06:50.741Z,70.14
2022-11-01T21:09:40.236Z,69.53
2022-11-01T21:12:34.426Z,69.55
2022-11-01T21:15:35.940Z,69.56
2022-11-01T21:18:36.170Z,69.67
2022-11-01T21:21:34.333Z,69.71
2022-11-01T21:24:28.834Z,70.49
2022-11-01T21:27:02.273Z,70.98
2022-11-01T21:29:31.383Z,70.81
2022-11-01T21:32:03.056Z,70.40
2022-11-01T21:34:32.689Z,70.23
2022-11-01T21:37:01.849Z,70.17
2022-11-01T21:39:32.894Z,70.89
2022-11-01T21:42:05.505Z,71.06
2022-11-01T21:44:39.870Z,69.85
2022-11-01T21:47:20.554Z,69.61
2022-11-01T21:49:50.036Z,68.31
2022-11-01T21:52:20.660Z,69.51
2022-11-01T21:54:50.066Z,69.11
2022-11-01T21:57:19.136Z,68.38
2022-11-01T21:59:48.072Z,67.77
2022-11-01T22:02:18.617Z,68.13
2022-11-01T22:04:47.646Z,67.46
2022-11-01T22:07:16.582Z,67.07
2022-11-01T22:09:45.488Z,67.04
2022-11-01T22:12:14.393Z,67.26
2022-11-01T22:14:43.439Z,68.12
2022-11-01T22:17:12.353Z,67.76
2022-11-01T22:19:42.668Z,67.65
2022-11-01T22:22:11.559Z,66.15
2022-11-01T22:24:40.542Z,65.70
2022-11-01T22:27:09.449Z,66.57
2022-11-01T22:29:38.391Z,67.16
2022-11-01T22:32:07.328Z,67.01
2022-11-01T22:34:36.271Z,67.24
2022-11-01T22:37:13.457Z,67.58
2022-11-01T22:39:43.258Z,66.86
2022-11-01T22:42:14.399Z,66.59
2022-11-01T22:44:45.354Z,67.40
2022-11-01T22:47:23.021Z,67.13
2022-11-01T22:49:54.964Z,67.49
2022-11-01T22:52:31.973Z,67.27
2022-11-01T22:55:05.248Z,66.50
2022-11-01T22:57:37.212Z,66.50
2022-11-01T23:00:27.107Z,67.16
2022-11-01T23:03:03.566Z,67.90
2022-11-01T23:05:32.964Z,67.54
2022-11-01T23:08:15.257Z,68.10
2022-11-01T23:10:49.361Z,68.25
2022-11-01T23:13:41.752Z,67.71
2022-11-01T23:16:23.055Z,67.81
2022-11-01T23:18:53.379Z,68.10
2022-11-01T23:21:23.353Z,68.66
2022-11-01T23:23:54.221Z,68.80
2022-11-01T23:26:24.814Z,68.20
2022-11-01T23:28:56.565Z,69.70
2022-11-01T23:31:26.678Z,69.01
2022-11-01T23:33:55.682Z,68.90
2022-11-01T23:36:27.675Z,67.66
2022-11-01T23:39:00.762Z,68.34
2022-11-01T23:41:33.651Z,69.37
2022-11-01T23:44:07.392Z,69.77
2022-11-01T23:46:36.338Z,70.66
2022-11-01T23:49:16.794Z,68.99
2022-11-01T23:51:46.011Z,69.91
2022-11-01T23:54:25.035Z,69.67
2022-11-01T23:56:56.059Z,70.40
2022-11-01T23:59:25.091Z,70.12
